Forside
METAR-TAF:

METAR-TAF

Lufthavne :

Halmstad, Sverige

Breddekreds: 56-41N, længdekreds: 012-50E, højde: 30 m

Aktuelle vejr

Denne rapport blev lavet for 44 minutter siden, kl. 01:20 UTC
Vind 2 kt fra varierende retninger
Temperatur 13°C
Fugtighed 94%
Tryk 1009 hPa
Sigt 10 km eller mere

METAR: ESMT 220120Z AUTO VRB02KT 9999 NCD 13/12 Q1009

Tid: 04:04 (02:04 UTC)

Vejrudsigter

Denne rapport blev lavet for 11 timer og 55 minutter siden, kl. 14:09 UTC
Foreløbig gælder fra 21 på 15 UTC til 21 på 19 UTC
Vind 8 kt fra nord
Sigt 10 km eller mere
ingen skyer under 1500m og ingen cumulonimbus

TAF: ESMT 211409Z 2115/2119 35008KT CAVOK

Vejrobservationer og prognoser fra mere end 4000 lufthavne (METAR og TAF).

De gule og røde prikker repræsenterer de meteorologiske stationer.

Flyt musen over at se navnet på stationen.

Så klik over at se vejr observationer og prognoser.

At skifte det kort: Klik på de grønne knapper med et sort kors for at zoome ind; på den grønne knap med en bindestreg for at zoome ud; eller på de grønne pile for tilstødende kort.


METAR-TAF: